createdAt,value
2023-04-02T00:02:20.767Z,95148.63
2023-04-02T00:05:31.551Z,95141.53
2023-04-02T00:08:18.115Z,95140.53
2023-04-02T00:10:48.802Z,95151.25
2023-04-02T00:13:18.031Z,95153.34
2023-04-02T00:15:49.476Z,95158.59
2023-04-02T00:18:19.312Z,95148.53
2023-04-02T00:21:10.539Z,95146.69
2023-04-02T00:23:42.438Z,95146.91
2023-04-02T00:26:48.563Z,95158.72
2023-04-02T00:29:16.707Z,95149.72
2023-04-02T00:31:47.440Z,95166.53
2023-04-02T00:34:28.891Z,95154.34
2023-04-02T00:36:55.950Z,95176.13
2023-04-02T00:39:25.111Z,95163.44
2023-04-02T00:42:06.643Z,95172.84
2023-04-02T00:44:38.620Z,95169.88
2023-04-02T00:47:26.940Z,95169.72
2023-04-02T00:50:16.829Z,95169.72
2023-04-02T00:52:46.096Z,95168.69
2023-04-02T00:55:36.730Z,95168.47
2023-04-02T00:58:12.972Z,95166.47
2023-04-02T01:00:40.354Z,95162.78
2023-04-02T01:03:29.130Z,95171.63
2023-04-02T01:06:14.255Z,95175.81
2023-04-02T01:08:54.558Z,95165.25
2023-04-02T01:11:57.658Z,95172.88
2023-04-02T01:14:48.920Z,95170.25
2023-04-02T01:17:54.488Z,95172.44
2023-04-02T01:20:52.155Z,95177.19
2023-04-02T01:23:30.892Z,95174.44
2023-04-02T01:26:12.293Z,95175.81
2023-04-02T01:29:00.875Z,95174.97
2023-04-02T01:31:30.469Z,95173.19
2023-04-02T01:33:57.119Z,95175.41
2023-04-02T01:36:49.038Z,95177.88
2023-04-02T01:39:27.668Z,95180.81
2023-04-02T01:42:10.665Z,95184.50
2023-04-02T01:45:11.022Z,95192.38
2023-04-02T01:47:39.357Z,95193.16
2023-04-02T01:50:14.702Z,95187.38
2023-04-02T01:52:43.128Z,95194.50
2023-04-02T01:55:13.204Z,95180.66
2023-04-02T01:57:43.298Z,95197.13
2023-04-02T02:00:15.749Z,95190.03
2023-04-02T02:02:48.934Z,95204.44
2023-04-02T02:05:20.235Z,95203.44
2023-04-02T02:07:49.621Z,95206.00
2023-04-02T02:10:27.697Z,95206.28
2023-04-02T02:12:55.541Z,95213.16
2023-04-02T02:15:24.124Z,95220.19
2023-04-02T02:17:55.988Z,95212.38
2023-04-02T02:20:22.931Z,95221.38
2023-04-02T02:22:51.186Z,95227.28
2023-04-02T02:25:21.967Z,95219.22
2023-04-02T02:28:07.254Z,95222.91
2023-04-02T02:30:46.483Z,95223.59
2023-04-02T02:33:26.105Z,95225.38
2023-04-02T02:36:07.948Z,95216.56
2023-04-02T02:38:45.756Z,95217.41
2023-04-02T02:41:35.413Z,95232.81
2023-04-02T02:44:20.774Z,95237.47
2023-04-02T02:46:56.531Z,95244.25
2023-04-02T02:49:50.020Z,95243.31
2023-04-02T02:52:22.309Z,95225.72
2023-04-02T02:55:18.796Z,95239.72
2023-04-02T02:58:18.879Z,95249.91
2023-04-02T03:00:56.427Z,95254.47
2023-04-02T03:03:27.485Z,95252.34
2023-04-02T03:06:07.391Z,95250.50
2023-04-02T03:08:42.969Z,95241.41
2023-04-02T03:11:19.699Z,95252.13
2023-04-02T03:13:50.379Z,95233.84
2023-04-02T03:16:34.884Z,95256.84
2023-04-02T03:19:34.765Z,95259.22
2023-04-02T03:22:16.419Z,95248.75
2023-04-02T03:24:58.970Z,95263.59
2023-04-02T03:27:34.485Z,95271.53
2023-04-02T03:30:31.499Z,95265.72
2023-04-02T03:33:14.500Z,95277.88
2023-04-02T03:35:53.503Z,95274.66
2023-04-02T03:38:28.474Z,95274.81
2023-04-02T03:41:20.976Z,95284.25
2023-04-02T03:43:53.533Z,95283.69
2023-04-02T03:46:30.514Z,95283.44
2023-04-02T03:49:02.171Z,95285.31
2023-04-02T03:51:36.790Z,95286.56
2023-04-02T03:54:03.841Z,95292.94
2023-04-02T03:56:39.784Z,95284.25
2023-04-02T03:59:15.430Z,95292.56
2023-04-02T04:01:55.951Z,95294.13
2023-04-02T04:04:24.855Z,95308.88
2023-04-02T04:06:52.459Z,95299.47
2023-04-02T04:09:37.810Z,95284.88
2023-04-02T04:12:28.891Z,95307.81
2023-04-02T04:15:16.962Z,95295.00
2023-04-02T04:18:02.136Z,95309.44
2023-04-02T04:20:56.573Z,95311.84
2023-04-02T04:23:37.743Z,95317.84
2023-04-02T04:26:21.207Z,95280.13
2023-04-02T04:29:12.431Z,95322.81
2023-04-02T04:31:46.830Z,95331.97
2023-04-02T04:34:18.826Z,95325.22
2023-04-02T04:36:54.904Z,95330.22
2023-04-02T04:39:37.279Z,95337.28
2023-04-02T04:42:05.408Z,95331.78
2023-04-02T04:44:49.581Z,95339.97
2023-04-02T04:47:30.898Z,95347.31
2023-04-02T04:50:08.809Z,95349.63
2023-04-02T04:52:40.423Z,95351.50
2023-04-02T04:55:29.727Z,95363.09
2023-04-02T04:58:05.729Z,95348.38
2023-04-02T05:00:49.656Z,95363.56
2023-04-02T05:03:23.571Z,95344.53
2023-04-02T05:05:51.496Z,95360.72
2023-04-02T05:08:30.519Z,95363.50
2023-04-02T05:11:05.609Z,95372.47
2023-04-02T05:14:04.991Z,95373.53
2023-04-02T05:16:36.827Z,95382.25
2023-04-02T05:19:22.375Z,95383.56
2023-04-02T05:22:30.897Z,95387.22
2023-04-02T05:25:13.654Z,95388.22
2023-04-02T05:27:46.008Z,95393.22
2023-04-02T05:30:23.031Z,95399.00
2023-04-02T05:33:14.342Z,95396.91
2023-04-02T05:35:48.559Z,95393.50
2023-04-02T05:38:25.975Z,95400.34
2023-04-02T05:41:02.232Z,95395.09
2023-04-02T05:43:34.142Z,95390.41
2023-04-02T05:46:14.360Z,95405.06
2023-04-02T05:48:46.127Z,95395.91
2023-04-02T05:51:22.163Z,95409.69
2023-04-02T05:54:00.140Z,95403.41
2023-04-02T05:56:48.285Z,95406.63
2023-04-02T05:59:28.389Z,95404.81
2023-04-02T06:02:07.237Z,95422.91
2023-04-02T06:04:59.836Z,95427.84
2023-04-02T06:07:36.197Z,95426.50
2023-04-02T06:10:12.230Z,95422.88
2023-04-02T06:13:05.868Z,95430.72
2023-04-02T06:15:38.316Z,95418.16
2023-04-02T06:18:19.032Z,95432.31
2023-04-02T06:20:47.427Z,95426.00
2023-04-02T06:23:43.268Z,95418.13
2023-04-02T06:26:22.177Z,95441.97
2023-04-02T06:29:05.105Z,95432.03
2023-04-02T06:31:40.848Z,95437.84
2023-04-02T06:34:19.308Z,95447.47
2023-04-02T06:37:04.428Z,95445.34
2023-04-02T06:39:33.475Z,95448.78
2023-04-02T06:42:28.311Z,95439.63
2023-04-02T06:45:25.581Z,95452.97
2023-04-02T06:48:17.722Z,95467.88
2023-04-02T06:50:54.187Z,95455.31
2023-04-02T06:53:37.492Z,95473.09
2023-04-02T06:56:31.730Z,95467.06
2023-04-02T06:58:59.079Z,95466.53
2023-04-02T07:01:30.276Z,95482.28
2023-04-02T07:03:57.980Z,95494.56
2023-04-02T07:06:36.572Z,95490.03
2023-04-02T07:09:04.668Z,95497.16
2023-04-02T07:11:32.885Z,95506.56
2023-04-02T07:14:02.208Z,95503.16
2023-04-02T07:16:30.991Z,95493.16
2023-04-02T07:18:58.813Z,95503.88
2023-04-02T07:21:27.867Z,95509.94
2023-04-02T07:23:54.873Z,95515.69
2023-04-02T07:26:27.332Z,95496.25
2023-04-02T07:28:55.679Z,95520.81
2023-04-02T07:31:27.659Z,95521.56
2023-04-02T07:33:58.405Z,95529.09
2023-04-02T07:36:24.935Z,95513.38
2023-04-02T07:38:52.073Z,95516.75
2023-04-02T07:41:19.670Z,95525.31
2023-04-02T07:43:46.734Z,95532.38
2023-04-02T07:46:16.654Z,95517.13
2023-04-02T07:48:48.386Z,95525.00
2023-04-02T07:51:22.375Z,95534.72
2023-04-02T07:53:50.653Z,95534.72
2023-04-02T07:56:21.008Z,95514.56
2023-04-02T07:58:47.661Z,95530.69
2023-04-02T08:01:26.240Z,95547.97
2023-04-02T08:03:54.828Z,95517.44
2023-04-02T08:06:22.707Z,95548.53
2023-04-02T08:08:49.889Z,95544.34
2023-04-02T08:11:16.806Z,95545.16
2023-04-02T08:13:43.604Z,95559.28
2023-04-02T08:16:10.521Z,95561.53
2023-04-02T08:18:37.315Z,95570.00
2023-04-02T08:21:07.831Z,95567.50
2023-04-02T08:23:35.770Z,95572.19
2023-04-02T08:26:02.895Z,95552.59
2023-04-02T08:28:29.337Z,95542.56
2023-04-02T08:30:55.961Z,95568.13
2023-04-02T08:33:22.479Z,95572.31
2023-04-02T08:35:49.930Z,95584.84
2023-04-02T08:38:18.636Z,95579.81
2023-04-02T08:40:54.134Z,95576.69
2023-04-02T08:44:09.126Z,95577.09
2023-04-02T08:46:48.045Z,95589.13
2023-04-02T08:49:17.872Z,95577.44
2023-04-02T08:52:22.079Z,95593.31
2023-04-02T08:54:49.271Z,95586.94
2023-04-02T08:57:31.427Z,95588.91
2023-04-02T09:00:26.013Z,95600.03
2023-04-02T09:02:58.338Z,95584.97
2023-04-02T09:05:31.841Z,95597.75
2023-04-02T09:08:01.746Z,95600.09
2023-04-02T09:10:39.536Z,95603.72
2023-04-02T09:13:17.288Z,95603.34
2023-04-02T09:15:45.685Z,95561.75
2023-04-02T09:18:17.826Z,95613.81
2023-04-02T09:20:44.972Z,95611.88
2023-04-02T09:23:19.733Z,95628.38
2023-04-02T09:26:03.555Z,95621.72
2023-04-02T09:28:31.778Z,95616.59
2023-04-02T09:31:01.343Z,95618.88
2023-04-02T09:33:41.928Z,95627.66
2023-04-02T09:36:18.614Z,95635.34
2023-04-02T09:39:01.454Z,95633.41
2023-04-02T09:41:30.154Z,95633.53
2023-04-02T09:44:21.074Z,95639.88
2023-04-02T09:47:09.410Z,95617.66
2023-04-02T09:49:38.394Z,95605.41
2023-04-02T09:52:11.236Z,95637.38
2023-04-02T09:54:42.563Z,95633.59
2023-04-02T09:57:24.046Z,95641.88
2023-04-02T10:00:25.447Z,95650.16
2023-04-02T10:03:17.814Z,95646.72
2023-04-02T10:05:44.644Z,95638.47
2023-04-02T10:08:28.086Z,95644.81
2023-04-02T10:10:59.416Z,95647.88
2023-04-02T10:13:33.827Z,95648.03
2023-04-02T10:16:16.713Z,95645.03
2023-04-02T10:18:49.545Z,95640.97
2023-04-02T10:21:21.734Z,95652.69
2023-04-02T10:23:48.740Z,95656.03
2023-04-02T10:26:56.548Z,95648.31
2023-04-02T10:29:39.553Z,95640.09
2023-04-02T10:32:26.272Z,95652.59
2023-04-02T10:35:05.050Z,95654.31
2023-04-02T10:37:50.166Z,95652.84
2023-04-02T10:40:34.857Z,95656.16
2023-04-02T10:43:32.494Z,95659.38
2023-04-02T10:46:05.025Z,95656.38
2023-04-02T10:48:41.015Z,95642.34
2023-04-02T10:51:17.618Z,95651.53
2023-04-02T10:54:02.712Z,95659.28
2023-04-02T10:56:38.073Z,95669.44
2023-04-02T10:59:26.253Z,95672.72
2023-04-02T11:01:56.054Z,95662.63
2023-04-02T11:04:33.033Z,95680.41
2023-04-02T11:07:18.024Z,95687.16
2023-04-02T11:09:48.588Z,95669.34
2023-04-02T11:12:25.089Z,95679.91
2023-04-02T11:14:54.013Z,95685.19
2023-04-02T11:17:22.269Z,95685.72
2023-04-02T11:19:48.831Z,95680.09
2023-04-02T11:22:22.607Z,95680.66
2023-04-02T11:24:51.130Z,95687.03
2023-04-02T11:27:23.511Z,95696.22
2023-04-02T11:29:56.429Z,95697.44
2023-04-02T11:32:27.266Z,95696.13
2023-04-02T11:35:05.721Z,95699.22
2023-04-02T11:37:36.553Z,95702.97
2023-04-02T11:40:12.149Z,95700.50
2023-04-02T11:42:40.919Z,95689.75
2023-04-02T11:45:28.653Z,95702.50
2023-04-02T11:48:01.326Z,95703.31
2023-04-02T11:50:34.753Z,95695.19
2023-04-02T11:53:10.306Z,95696.41
2023-04-02T11:56:05.432Z,95697.69
2023-04-02T11:58:59.231Z,95706.50
2023-04-02T12:01:48.385Z,95703.13
2023-04-02T12:04:56.422Z,95700.19
2023-04-02T12:08:05.074Z,95705.56
2023-04-02T12:11:02.023Z,95705.03
2023-04-02T12:13:58.394Z,95706.91
2023-04-02T12:16:31.208Z,95713.34
2023-04-02T12:18:59.609Z,95709.63
2023-04-02T12:21:28.580Z,95712.22
2023-04-02T12:23:58.480Z,95713.59
2023-04-02T12:26:38.929Z,95721.91
2023-04-02T12:29:36.206Z,95725.13
2023-04-02T12:32:04.021Z,95727.16
2023-04-02T12:34:31.013Z,95715.16
2023-04-02T12:37:02.621Z,95728.00
2023-04-02T12:39:33.196Z,95729.00
2023-04-02T12:41:59.775Z,95732.88
2023-04-02T12:44:31.029Z,95752.72
2023-04-02T12:46:58.829Z,95736.69
2023-04-02T12:49:33.470Z,95748.16
2023-04-02T12:52:03.679Z,95750.31
2023-04-02T12:54:36.491Z,95732.25
2023-04-02T12:57:23.684Z,95751.78
2023-04-02T12:59:50.152Z,95750.38
2023-04-02T13:02:23.454Z,95750.66
2023-04-02T13:04:55.829Z,95753.00
2023-04-02T13:07:27.031Z,95750.59
2023-04-02T13:09:59.615Z,95762.72
2023-04-02T13:12:38.288Z,95757.84
2023-04-02T13:15:20.573Z,95745.81
2023-04-02T13:18:01.692Z,95752.28
2023-04-02T13:20:36.657Z,95759.97
2023-04-02T13:23:23.862Z,95758.91
2023-04-02T13:25:51.708Z,95751.38
2023-04-02T13:28:18.645Z,95746.88
2023-04-02T13:30:46.065Z,95766.97
2023-04-02T13:33:14.114Z,95774.88
2023-04-02T13:35:42.784Z,95764.84
2023-04-02T13:38:09.591Z,95737.41
2023-04-02T13:40:37.368Z,95751.91
2023-04-02T13:43:05.609Z,95766.09
2023-04-02T13:45:38.141Z,95752.22
2023-04-02T13:48:05.797Z,95761.34
2023-04-02T13:50:34.751Z,95773.31
2023-04-02T13:53:10.232Z,95774.75
2023-04-02T13:55:42.110Z,95764.75
2023-04-02T13:58:09.916Z,95783.97
2023-04-02T14:00:37.800Z,95780.53
2023-04-02T14:03:09.933Z,95780.88
2023-04-02T14:05:55.415Z,95785.94
2023-04-02T14:08:57.990Z,95785.44
2023-04-02T14:11:45.576Z,95793.38
2023-04-02T14:14:42.372Z,95789.16
2023-04-02T14:17:31.198Z,95795.75
2023-04-02T14:20:22.036Z,95787.84
2023-04-02T14:23:14.301Z,95798.63
2023-04-02T14:26:02.334Z,95803.34
2023-04-02T14:28:47.248Z,95808.91
2023-04-02T14:31:44.176Z,95828.38
2023-04-02T14:34:21.832Z,95821.84
2023-04-02T14:37:11.901Z,95826.13
2023-04-02T14:40:03.549Z,95813.28
2023-04-02T14:42:57.245Z,95825.66
2023-04-02T14:45:38.062Z,95818.59
2023-04-02T14:48:21.158Z,95821.50
2023-04-02T14:50:48.413Z,95829.34
2023-04-02T14:53:24.061Z,95827.22
2023-04-02T14:55:52.609Z,95827.75
2023-04-02T14:58:25.353Z,95841.91
2023-04-02T15:01:02.541Z,95846.63
2023-04-02T15:03:33.756Z,95841.88
2023-04-02T15:06:06.387Z,95826.41
2023-04-02T15:09:02.165Z,95834.50
2023-04-02T15:11:58.509Z,95835.84
2023-04-02T15:14:34.368Z,95842.94
2023-04-02T15:17:00.941Z,95849.25
2023-04-02T15:19:27.421Z,95823.53
2023-04-02T15:22:18.791Z,95856.09
2023-04-02T15:25:20.946Z,95861.59
2023-04-02T15:28:21.881Z,95862.41
2023-04-02T15:30:54.596Z,95857.22
2023-04-02T15:34:05.822Z,95859.81
2023-04-02T15:36:41.573Z,95864.56
2023-04-02T15:39:31.524Z,95857.50
2023-04-02T15:42:28.010Z,95867.22
2023-04-02T15:45:17.723Z,95880.66
2023-04-02T15:48:23.193Z,95882.53
2023-04-02T15:50:49.577Z,95893.03
2023-04-02T15:53:38.883Z,95894.88
2023-04-02T15:56:16.101Z,95904.63
2023-04-02T15:59:10.867Z,95898.31
2023-04-02T16:02:16.038Z,95896.75
2023-04-02T16:05:04.710Z,95911.47
2023-04-02T16:07:46.395Z,95906.19
2023-04-02T16:10:30.193Z,95902.53
2023-04-02T16:13:30.692Z,95926.44
2023-04-02T16:16:17.255Z,95918.81
2023-04-02T16:18:52.333Z,95929.09
2023-04-02T16:21:28.465Z,95934.06
2023-04-02T16:23:54.987Z,95929.88
2023-04-02T16:26:34.904Z,95937.75
2023-04-02T16:29:51.058Z,95940.91
2023-04-02T16:32:38.152Z,95944.03
2023-04-02T16:35:41.670Z,95942.97
2023-04-02T16:38:22.206Z,95935.09
2023-04-02T16:41:27.738Z,95941.91
2023-04-02T16:44:21.594Z,95944.00
2023-04-02T16:46:54.970Z,95967.66
2023-04-02T16:49:29.560Z,95965.75
2023-04-02T16:52:33.786Z,95981.00
2023-04-02T16:55:16.495Z,95980.47
2023-04-02T16:58:01.834Z,95992.28
2023-04-02T17:00:36.922Z,95994.34
2023-04-02T17:03:50.621Z,95988.28
2023-04-02T17:06:42.796Z,95997.47
2023-04-02T17:09:18.438Z,96011.63
2023-04-02T17:12:11.649Z,95996.34
2023-04-02T17:14:49.101Z,96004.94
2023-04-02T17:17:16.387Z,96027.25
2023-04-02T17:19:44.678Z,95992.19
2023-04-02T17:22:20.658Z,95997.66
2023-04-02T17:24:57.600Z,96031.84
2023-04-02T17:27:35.411Z,96040.22
2023-04-02T17:30:15.455Z,96043.34
2023-04-02T17:32:42.666Z,96042.75
2023-04-02T17:35:21.164Z,96044.03
2023-04-02T17:37:58.094Z,96058.50
2023-04-02T17:40:24.645Z,96067.63
2023-04-02T17:43:21.485Z,96069.44
2023-04-02T17:45:52.409Z,96079.09
2023-04-02T17:48:40.171Z,96061.13
2023-04-02T17:51:29.937Z,96083.75
2023-04-02T17:54:30.770Z,96083.47
2023-04-02T17:57:19.418Z,96098.22
2023-04-02T17:59:55.778Z,96106.22
2023-04-02T18:02:34.694Z,96110.69
2023-04-02T18:05:27.676Z,96120.31
2023-04-02T18:08:24.000Z,96123.13
2023-04-02T18:11:10.395Z,96122.28
2023-04-02T18:13:42.598Z,96121.13
2023-04-02T18:16:26.074Z,96135.03
2023-04-02T18:19:15.563Z,96141.19
2023-04-02T18:21:46.436Z,96145.09
2023-04-02T18:24:22.472Z,96155.34
2023-04-02T18:27:03.852Z,96141.69
2023-04-02T18:29:52.107Z,96150.75
2023-04-02T18:32:56.158Z,96175.91
2023-04-02T18:35:33.587Z,96165.19
2023-04-02T18:38:28.427Z,96183.75
2023-04-02T18:41:27.339Z,96178.31
2023-04-02T18:44:13.602Z,96195.53
2023-04-02T18:47:14.321Z,96183.72
2023-04-02T18:49:49.842Z,96190.13
2023-04-02T18:52:18.249Z,96206.78
2023-04-02T18:54:49.273Z,96182.56
2023-04-02T18:57:22.485Z,96214.09
2023-04-02T18:59:56.820Z,96209.34
2023-04-02T19:02:54.493Z,96222.25
2023-04-02T19:05:34.964Z,96217.19
2023-04-02T19:08:21.618Z,96221.06
2023-04-02T19:10:53.908Z,96224.97
2023-04-02T19:13:20.764Z,96234.56
2023-04-02T19:16:29.301Z,96233.84
2023-04-02T19:19:01.692Z,96242.28
2023-04-02T19:21:49.969Z,96246.91
2023-04-02T19:24:28.614Z,96251.91
2023-04-02T19:27:19.382Z,96259.97
2023-04-02T19:29:59.864Z,96268.84
2023-04-02T19:32:55.069Z,96266.06
2023-04-02T19:35:40.479Z,96272.41
2023-04-02T19:38:48.318Z,96278.84
2023-04-02T19:41:33.012Z,96284.00
2023-04-02T19:43:59.628Z,96277.53
2023-04-02T19:46:26.640Z,96287.78
2023-04-02T19:49:03.535Z,96269.56
2023-04-02T19:51:30.082Z,96298.13
2023-04-02T19:53:56.544Z,96291.38
2023-04-02T19:56:23.025Z,96295.03
2023-04-02T19:58:49.510Z,96310.44
2023-04-02T20:01:16.132Z,96307.41
2023-04-02T20:03:42.724Z,96289.69
2023-04-02T20:06:09.154Z,96302.09
2023-04-02T20:08:36.272Z,96286.59
2023-04-02T20:11:03.156Z,96308.94
2023-04-02T20:13:29.668Z,96321.34
2023-04-02T20:16:01.207Z,96314.06
2023-04-02T20:18:28.187Z,96328.63
2023-04-02T20:20:54.912Z,96319.41
2023-04-02T20:23:22.553Z,96338.59
2023-04-02T20:25:53.122Z,96336.81
2023-04-02T20:28:26.167Z,96339.41
2023-04-02T20:30:53.496Z,96335.00
2023-04-02T20:33:22.521Z,96347.25
2023-04-02T20:35:50.612Z,96348.38
2023-04-02T20:38:17.939Z,96350.00
2023-04-02T20:40:46.317Z,96335.91
2023-04-02T20:43:12.967Z,96355.00
2023-04-02T20:45:39.403Z,96354.66
2023-04-02T20:48:06.262Z,96355.78
2023-04-02T20:50:32.726Z,96367.25
2023-04-02T20:53:00.059Z,96385.16
2023-04-02T20:55:26.515Z,96367.81
2023-04-02T20:57:53.838Z,96378.78
2023-04-02T21:00:21.043Z,96393.34
2023-04-02T21:02:47.546Z,96388.53
2023-04-02T21:05:14.099Z,96382.88
2023-04-02T21:07:40.578Z,96407.38
2023-04-02T21:10:07.426Z,96405.22
2023-04-02T21:12:33.856Z,96406.59
2023-04-02T21:15:02.498Z,96365.31
2023-04-02T21:17:29.677Z,96385.09
2023-04-02T21:19:56.198Z,96401.31
2023-04-02T21:22:22.797Z,96393.56
2023-04-02T21:24:49.338Z,96420.50
2023-04-02T21:27:16.730Z,96394.22
2023-04-02T21:29:43.194Z,96418.44
2023-04-02T21:32:20.806Z,96398.63
2023-04-02T21:34:48.460Z,96430.13
2023-04-02T21:37:14.904Z,96439.00
2023-04-02T21:39:41.474Z,96432.50
2023-04-02T21:42:08.062Z,96419.78
2023-04-02T21:44:34.493Z,96441.94
2023-04-02T21:47:01.062Z,96429.09
2023-04-02T21:49:29.700Z,96437.28
2023-04-02T21:51:56.167Z,96436.53
2023-04-02T21:54:22.892Z,96448.75
2023-04-02T21:56:49.512Z,96415.34
2023-04-02T21:59:17.397Z,96440.84
2023-04-02T22:01:47.176Z,96447.94
2023-04-02T22:04:19.860Z,96453.72
2023-04-02T22:06:46.802Z,96458.13
2023-04-02T22:09:16.334Z,96445.03
2023-04-02T22:11:46.559Z,96442.44
2023-04-02T22:14:14.063Z,96453.66
2023-04-02T22:16:41.030Z,96449.22
2023-04-02T22:19:11.681Z,96464.28
2023-04-02T22:21:38.638Z,96452.94
2023-04-02T22:24:07.216Z,96480.25
2023-04-02T22:26:34.988Z,96460.31
2023-04-02T22:29:01.871Z,96473.13
2023-04-02T22:31:31.118Z,96464.94
2023-04-02T22:33:58.723Z,96492.25
2023-04-02T22:36:27.128Z,96485.50
2023-04-02T22:38:54.041Z,96493.53
2023-04-02T22:41:23.152Z,96482.69
2023-04-02T22:43:50.029Z,96492.09
2023-04-02T22:46:18.428Z,96486.75
2023-04-02T22:48:46.412Z,96486.00
2023-04-02T22:51:15.310Z,96473.41
2023-04-02T22:53:42.994Z,96482.81
2023-04-02T22:56:15.465Z,96491.00
2023-04-02T22:58:42.743Z,96474.69
2023-04-02T23:01:22.544Z,96475.06
2023-04-02T23:03:49.444Z,96478.28
2023-04-02T23:06:18.073Z,96491.75
2023-04-02T23:08:45.940Z,96491.75
2023-04-02T23:11:24.356Z,96489.47
2023-04-02T23:13:53.490Z,96481.00
2023-04-02T23:16:21.224Z,96495.56
2023-04-02T23:18:49.145Z,96469.47
2023-04-02T23:21:17.610Z,96492.91
2023-04-02T23:23:45.576Z,96486.06
2023-04-02T23:26:18.286Z,96477.72
2023-04-02T23:28:45.656Z,96484.84
2023-04-02T23:31:15.694Z,96456.31
2023-04-02T23:33:42.638Z,96476.44
2023-04-02T23:36:11.339Z,96450.06
2023-04-02T23:38:37.888Z,96450.44
2023-04-02T23:41:04.704Z,96480.78
2023-04-02T23:43:31.527Z,96484.06
2023-04-02T23:45:58.175Z,96482.97
2023-04-02T23:48:24.765Z,96469.69
2023-04-02T23:50:51.322Z,96473.97
2023-04-02T23:53:18.650Z,96458.47
2023-04-02T23:55:45.759Z,96476.44
2023-04-02T23:58:12.225Z,96462.91
